createdAt,value
2017-08-13T00:01:39.298Z,7.10
2017-08-13T00:04:07.446Z,7.60
2017-08-13T00:06:36.362Z,6.82
2017-08-13T00:09:04.537Z,6.62
2017-08-13T00:11:32.706Z,6.97
2017-08-13T00:14:00.850Z,7.95
2017-08-13T00:16:29.825Z,6.80
2017-08-13T00:18:57.999Z,7.35
2017-08-13T00:21:26.142Z,7.43
2017-08-13T00:23:54.338Z,6.87
2017-08-13T00:26:22.501Z,7.68
2017-08-13T00:28:50.651Z,7.62
2017-08-13T00:31:18.849Z,6.82
2017-08-13T00:33:47.014Z,8.10
2017-08-13T00:36:15.176Z,6.68
2017-08-13T00:38:43.346Z,7.10
2017-08-13T00:41:11.509Z,7.50
2017-08-13T00:43:39.662Z,7.10
2017-08-13T00:46:08.625Z,7.30
2017-08-13T00:48:36.789Z,7.25
2017-08-13T00:51:04.938Z,8.60
2017-08-13T00:53:33.136Z,7.95
2017-08-13T00:56:01.288Z,7.95
2017-08-13T00:58:29.436Z,7.90
2017-08-13T01:00:58.408Z,7.80
2017-08-13T01:03:26.549Z,7.70
2017-08-13T01:05:54.708Z,7.75
2017-08-13T01:08:22.904Z,7.30
2017-08-13T01:10:51.070Z,8.15
2017-08-13T01:13:19.233Z,7.65
2017-08-13T01:15:47.409Z,7.28
2017-08-13T01:18:15.559Z,7.65
2017-08-13T01:20:44.476Z,6.90
2017-08-13T01:23:12.660Z,6.87
2017-08-13T01:25:40.831Z,7.72
2017-08-13T01:28:09.000Z,7.43
2017-08-13T01:30:37.201Z,7.75
2017-08-13T01:33:05.366Z,7.85
2017-08-13T01:35:33.533Z,7.55
2017-08-13T01:38:01.720Z,8.00
2017-08-13T01:40:29.884Z,8.32
2017-08-13T01:42:58.029Z,7.15
2017-08-13T01:45:26.227Z,7.68
2017-08-13T01:47:54.382Z,10.13
2017-08-13T01:50:22.525Z,8.35
2017-08-13T01:52:50.703Z,8.50
2017-08-13T01:55:18.860Z,9.07
2017-08-13T01:57:47.025Z,7.85
2017-08-13T02:00:15.220Z,7.30
2017-08-13T02:02:43.368Z,8.20
2017-08-13T02:05:11.515Z,10.77
2017-08-13T02:07:39.709Z,8.82
2017-08-13T02:10:07.879Z,6.95
2017-08-13T02:12:36.637Z,8.60
2017-08-13T02:15:04.828Z,7.03
2017-08-13T02:17:32.989Z,7.55
2017-08-13T02:20:01.132Z,7.22
2017-08-13T02:22:29.325Z,5.68
2017-08-13T02:24:58.253Z,8.48
2017-08-13T02:27:26.401Z,7.20
2017-08-13T02:29:54.600Z,6.45
2017-08-13T02:32:22.774Z,7.28
2017-08-13T02:34:50.937Z,7.05
2017-08-13T02:37:19.106Z,7.35
2017-08-13T02:39:47.273Z,10.70
2017-08-13T02:42:15.451Z,10.00
2017-08-13T02:44:43.651Z,8.90
2017-08-13T02:47:11.810Z,9.25
2017-08-13T02:49:39.954Z,8.60
2017-08-13T02:52:08.898Z,9.07
2017-08-13T02:54:37.076Z,10.82
2017-08-13T02:57:05.246Z,10.48
2017-08-13T02:59:33.451Z,9.77
2017-08-13T03:02:01.617Z,9.20
2017-08-13T03:04:29.784Z,7.95
2017-08-13T03:06:57.977Z,10.40
2017-08-13T03:09:26.123Z,7.47
2017-08-13T03:11:54.288Z,9.45
2017-08-13T03:14:22.481Z,7.50
2017-08-13T03:16:51.528Z,8.10
2017-08-13T03:19:19.701Z,9.07
2017-08-13T03:21:47.889Z,9.25
2017-08-13T03:24:16.059Z,7.93
2017-08-13T03:26:44.232Z,9.55
2017-08-13T03:29:12.423Z,8.80
2017-08-13T03:31:40.590Z,8.00
2017-08-13T03:34:08.753Z,7.18
2017-08-13T03:36:36.930Z,6.90
2017-08-13T03:39:05.079Z,9.18
2017-08-13T03:41:34.016Z,8.75
2017-08-13T03:44:02.214Z,9.38
2017-08-13T03:46:30.370Z,7.82
2017-08-13T03:48:58.536Z,7.10
2017-08-13T03:51:26.713Z,8.77
2017-08-13T03:53:54.862Z,8.85
2017-08-13T03:56:23.009Z,7.75
2017-08-13T03:58:51.208Z,9.85
2017-08-13T04:01:20.137Z,7.55
2017-08-13T04:03:48.281Z,8.60
2017-08-13T04:06:16.462Z,9.10
2017-08-13T04:08:44.613Z,8.30
2017-08-13T04:11:13.518Z,8.30
2017-08-13T04:13:41.709Z,8.27
2017-08-13T04:16:09.907Z,9.55
2017-08-13T04:18:38.056Z,9.27
2017-08-13T04:21:06.242Z,8.32
2017-08-13T04:23:34.398Z,8.60
2017-08-13T04:26:02.571Z,8.18
2017-08-13T04:28:30.750Z,8.95
2017-08-13T04:30:58.917Z,7.40
2017-08-13T04:33:27.066Z,8.60
2017-08-13T04:35:56.033Z,6.87
2017-08-13T04:38:24.179Z,8.45
2017-08-13T04:40:52.322Z,7.45
2017-08-13T04:43:21.306Z,8.20
2017-08-13T04:45:50.236Z,7.90
2017-08-13T04:48:18.405Z,7.80
2017-08-13T04:50:46.672Z,7.05
2017-08-13T04:53:14.820Z,7.15
2017-08-13T04:55:43.738Z,7.80
2017-08-13T04:58:11.930Z,8.32
2017-08-13T05:00:41.008Z,7.22
2017-08-13T05:03:09.157Z,6.50
2017-08-13T05:05:38.099Z,7.03
2017-08-13T05:08:06.271Z,7.47
2017-08-13T05:10:34.442Z,5.87
2017-08-13T05:13:02.615Z,5.37
2017-08-13T05:15:30.784Z,6.30
2017-08-13T05:17:58.953Z,6.25
2017-08-13T05:20:27.150Z,6.10
2017-08-13T05:22:55.319Z,6.90
2017-08-13T05:25:23.466Z,6.57
2017-08-13T05:27:51.652Z,6.40
2017-08-13T05:30:19.805Z,6.93
2017-08-13T05:32:48.739Z,6.60
2017-08-13T05:35:16.913Z,7.00
2017-08-13T05:37:45.062Z,6.68
2017-08-13T05:40:13.224Z,5.93
2017-08-13T05:42:41.427Z,6.18
2017-08-13T05:45:09.598Z,6.65
2017-08-13T05:47:37.769Z,5.90
2017-08-13T05:50:05.941Z,6.43
2017-08-13T05:52:34.081Z,5.00
2017-08-13T05:55:03.013Z,6.40
2017-08-13T05:57:31.206Z,4.80
2017-08-13T05:59:59.373Z,5.03
2017-08-13T06:02:27.522Z,5.68
2017-08-13T06:04:55.699Z,4.75
2017-08-13T06:07:23.862Z,5.93
2017-08-13T06:09:52.780Z,5.30
2017-08-13T06:12:20.954Z,4.20
2017-08-13T06:14:49.117Z,4.82
2017-08-13T06:17:17.266Z,4.80
2017-08-13T06:19:46.240Z,7.25
2017-08-13T06:22:14.392Z,4.80
2017-08-13T06:24:42.562Z,5.60
2017-08-13T06:27:10.758Z,4.70
2017-08-13T06:29:38.911Z,4.05
2017-08-13T06:32:07.076Z,4.10
2017-08-13T06:34:35.246Z,4.18
2017-08-13T06:37:03.414Z,6.57
2017-08-13T06:39:31.576Z,5.05
2017-08-13T06:41:59.760Z,4.55
2017-08-13T06:44:27.999Z,4.97
2017-08-13T06:46:56.165Z,4.30
2017-08-13T06:49:24.352Z,5.60
2017-08-13T06:51:53.279Z,4.72
2017-08-13T06:54:21.452Z,5.25
2017-08-13T06:56:49.637Z,5.30
2017-08-13T06:59:17.787Z,4.15
2017-08-13T07:01:45.950Z,5.43
2017-08-13T07:04:14.144Z,4.97
2017-08-13T07:06:42.290Z,4.32
2017-08-13T07:09:11.210Z,3.80
2017-08-13T07:11:39.401Z,5.00
2017-08-13T07:14:07.547Z,3.85
2017-08-13T07:16:36.460Z,5.00
2017-08-13T07:19:04.664Z,3.97
2017-08-13T07:21:32.835Z,4.28
2017-08-13T07:24:00.997Z,3.75
2017-08-13T07:26:29.183Z,4.05
2017-08-13T07:28:57.331Z,4.30
2017-08-13T07:31:25.496Z,4.20
2017-08-13T07:33:53.679Z,3.67
2017-08-13T07:36:21.829Z,4.00
2017-08-13T07:38:50.770Z,3.45
2017-08-13T07:41:18.959Z,3.70
2017-08-13T07:43:47.101Z,3.60
2017-08-13T07:46:15.268Z,3.40
2017-08-13T07:48:43.451Z,3.65
2017-08-13T07:51:11.617Z,3.87
2017-08-13T07:53:39.776Z,3.30
2017-08-13T07:56:07.950Z,3.70
2017-08-13T07:58:36.101Z,3.33
2017-08-13T08:01:04.249Z,3.45
2017-08-13T08:03:32.426Z,3.33
2017-08-13T08:06:00.589Z,3.90
2017-08-13T08:08:28.738Z,3.40
2017-08-13T08:10:56.930Z,2.78
2017-08-13T08:13:25.078Z,2.92
2017-08-13T08:15:53.223Z,2.60
2017-08-13T08:18:22.186Z,2.72
2017-08-13T08:20:50.345Z,2.70
2017-08-13T08:23:18.496Z,2.35
2017-08-13T08:25:46.688Z,2.67
2017-08-13T08:28:14.857Z,3.65
2017-08-13T08:30:43.024Z,2.90
2017-08-13T08:33:11.205Z,3.43
2017-08-13T08:35:39.380Z,2.95
2017-08-13T08:38:07.640Z,3.35
2017-08-13T08:40:35.910Z,2.40
2017-08-13T08:43:04.845Z,2.30
2017-08-13T08:45:33.016Z,2.40
2017-08-13T08:48:01.186Z,2.57
2017-08-13T08:50:29.333Z,2.70
2017-08-13T08:52:57.492Z,2.20
2017-08-13T08:55:25.671Z,2.10
2017-08-13T08:57:53.825Z,2.27
2017-08-13T09:00:21.994Z,2.40
2017-08-13T09:02:50.202Z,2.40
2017-08-13T09:05:19.137Z,2.17
2017-08-13T09:07:47.310Z,2.20
2017-08-13T09:10:15.508Z,2.23
2017-08-13T09:12:43.655Z,2.10
2017-08-13T09:15:11.821Z,2.20
2017-08-13T09:17:40.001Z,2.77
2017-08-13T09:20:08.156Z,10.90
2017-08-13T09:22:36.328Z,2.40
2017-08-13T09:25:05.304Z,2.35
2017-08-13T09:27:33.459Z,2.72
2017-08-13T09:30:01.642Z,4.10
2017-08-13T09:32:29.810Z,3.65
2017-08-13T09:34:57.974Z,3.37
2017-08-13T09:37:26.119Z,3.05
2017-08-13T09:39:55.058Z,3.60
2017-08-13T09:42:23.985Z,5.80
2017-08-13T09:44:52.140Z,3.53
2017-08-13T09:47:20.338Z,4.62
2017-08-13T09:49:48.497Z,3.12
2017-08-13T09:52:16.670Z,4.35
2017-08-13T09:54:44.860Z,3.92
2017-08-13T09:57:13.026Z,2.30
2017-08-13T09:59:41.195Z,4.15
2017-08-13T10:02:09.391Z,2.87
2017-08-13T10:04:37.553Z,3.25
2017-08-13T10:07:05.721Z,5.18
2017-08-13T10:09:33.893Z,2.35
2017-08-13T10:12:02.040Z,2.83
2017-08-13T10:14:30.972Z,2.10
2017-08-13T10:16:59.155Z,4.18
2017-08-13T10:19:27.306Z,3.12
2017-08-13T10:21:55.482Z,3.67
2017-08-13T10:24:23.683Z,4.03
2017-08-13T10:26:51.845Z,4.28
2017-08-13T10:29:20.065Z,3.72
2017-08-13T10:31:48.269Z,3.33
2017-08-13T10:34:17.178Z,3.03
2017-08-13T10:36:45.326Z,2.60
2017-08-13T10:39:14.342Z,3.75
2017-08-13T10:41:42.495Z,4.90
2017-08-13T10:44:11.407Z,2.97
2017-08-13T10:46:39.597Z,3.45
2017-08-13T10:49:07.739Z,4.82
2017-08-13T10:51:36.673Z,2.45
2017-08-13T10:54:04.846Z,6.87
2017-08-13T10:56:32.991Z,3.22
2017-08-13T10:59:01.134Z,5.65
2017-08-13T11:01:29.335Z,3.87
2017-08-13T11:03:58.245Z,3.37
2017-08-13T11:06:26.415Z,3.15
2017-08-13T11:08:54.608Z,2.30
2017-08-13T11:11:22.771Z,3.08
2017-08-13T11:13:50.928Z,3.08
2017-08-13T11:16:19.121Z,2.80
2017-08-13T11:18:47.274Z,3.37
2017-08-13T11:21:16.205Z,3.65
2017-08-13T11:23:44.402Z,2.65
2017-08-13T11:26:12.545Z,4.12
2017-08-13T11:28:40.692Z,4.40
2017-08-13T11:31:08.884Z,3.42
2017-08-13T11:33:37.044Z,2.78
2017-08-13T11:36:05.200Z,2.60
2017-08-13T11:38:34.164Z,3.12
2017-08-13T11:41:02.309Z,4.03
2017-08-13T11:43:30.459Z,5.43
2017-08-13T11:45:58.652Z,6.50
2017-08-13T11:48:26.818Z,3.12
2017-08-13T11:50:54.967Z,4.75
2017-08-13T11:53:23.906Z,3.42
2017-08-13T11:55:52.069Z,3.85
2017-08-13T11:58:20.231Z,4.07
2017-08-13T12:00:48.416Z,4.68
2017-08-13T12:03:16.566Z,3.58
2017-08-13T12:05:45.501Z,3.20
2017-08-13T12:08:13.695Z,2.75
2017-08-13T12:10:41.844Z,3.78
2017-08-13T12:13:09.987Z,1.80
2017-08-13T12:15:38.181Z,3.00
2017-08-13T12:18:06.326Z,2.15
2017-08-13T12:20:35.262Z,3.65
2017-08-13T12:23:03.457Z,2.20
2017-08-13T12:25:31.622Z,2.92
2017-08-13T12:27:59.785Z,2.90
2017-08-13T12:30:27.973Z,2.80
2017-08-13T12:32:56.134Z,3.33
2017-08-13T12:35:24.282Z,3.37
2017-08-13T12:37:52.461Z,3.37
2017-08-13T12:40:20.637Z,3.58
2017-08-13T12:42:48.807Z,4.20
2017-08-13T12:45:16.982Z,2.95
2017-08-13T12:47:45.126Z,3.20
2017-08-13T12:50:13.293Z,2.85
2017-08-13T12:52:41.482Z,2.35
2017-08-13T12:55:10.394Z,2.62
2017-08-13T12:57:38.544Z,2.95
2017-08-13T13:00:07.501Z,2.22
2017-08-13T13:02:35.669Z,2.30
2017-08-13T13:05:03.817Z,2.03
2017-08-13T13:07:31.986Z,2.10
2017-08-13T13:10:00.134Z,2.25
2017-08-13T13:12:29.076Z,2.25
2017-08-13T13:14:57.281Z,1.90
2017-08-13T13:17:25.426Z,2.30
2017-08-13T13:19:53.578Z,1.92
2017-08-13T13:22:22.102Z,2.10
2017-08-13T13:24:50.251Z,2.30
2017-08-13T13:27:18.430Z,2.37
2017-08-13T13:29:46.632Z,1.95
2017-08-13T13:32:14.884Z,1.95
2017-08-13T13:34:43.034Z,3.25
2017-08-13T13:37:11.211Z,2.08
2017-08-13T13:39:39.358Z,2.08
2017-08-13T13:42:07.512Z,2.20
2017-08-13T13:44:35.686Z,1.70
2017-08-13T13:47:03.851Z,2.28
2017-08-13T13:49:32.045Z,2.50
2017-08-13T13:52:00.219Z,1.90
2017-08-13T13:54:28.384Z,1.80
2017-08-13T13:56:56.529Z,1.90
2017-08-13T13:59:24.720Z,2.20
2017-08-13T14:01:52.885Z,1.90
2017-08-13T14:04:21.050Z,2.33
2017-08-13T14:06:50.206Z,2.20
2017-08-13T14:09:19.115Z,2.00
2017-08-13T14:11:47.265Z,1.85
2017-08-13T14:14:16.233Z,1.85
2017-08-13T14:16:45.911Z,2.05
2017-08-13T14:19:14.063Z,2.00
2017-08-13T14:21:42.258Z,2.60
2017-08-13T14:24:10.421Z,1.83
2017-08-13T14:26:38.590Z,2.53
2017-08-13T14:29:06.781Z,1.80
2017-08-13T14:31:34.941Z,2.10
2017-08-13T14:34:03.090Z,1.90
2017-08-13T14:36:32.029Z,1.75
2017-08-13T14:39:00.197Z,1.75
2017-08-13T14:41:28.346Z,1.90
2017-08-13T14:43:56.538Z,2.37
2017-08-13T14:46:24.710Z,2.22
2017-08-13T14:48:52.862Z,2.05
2017-08-13T14:51:21.821Z,2.25
2017-08-13T14:53:49.993Z,2.30
2017-08-13T14:56:18.163Z,1.83
2017-08-13T14:58:46.338Z,1.87
2017-08-13T15:01:14.485Z,2.30
2017-08-13T15:03:42.653Z,2.35
2017-08-13T15:06:10.825Z,2.00
2017-08-13T15:08:38.973Z,2.20
2017-08-13T15:11:07.878Z,2.33
2017-08-13T15:13:36.057Z,2.28
2017-08-13T15:16:04.206Z,2.00
2017-08-13T15:18:33.140Z,1.75
2017-08-13T15:21:01.431Z,1.80
2017-08-13T15:23:29.601Z,2.10
2017-08-13T15:25:57.769Z,2.17
2017-08-13T15:28:25.954Z,1.98
2017-08-13T15:30:54.103Z,2.12
2017-08-13T15:33:22.255Z,1.75
2017-08-13T15:35:51.191Z,2.30
2017-08-13T15:38:19.353Z,1.95
2017-08-13T15:40:47.516Z,2.17
2017-08-13T15:43:15.686Z,2.03
2017-08-13T15:45:43.830Z,1.73
2017-08-13T15:48:11.993Z,1.90
2017-08-13T15:50:40.193Z,1.92
2017-08-13T15:53:09.115Z,2.53
2017-08-13T15:55:37.284Z,1.80
2017-08-13T15:58:05.803Z,2.08
2017-08-13T16:00:33.947Z,2.47
2017-08-13T16:03:02.094Z,2.22
2017-08-13T16:05:31.034Z,1.77
2017-08-13T16:07:59.181Z,2.12
2017-08-13T16:10:27.329Z,1.80
2017-08-13T16:12:56.302Z,2.15
2017-08-13T16:15:24.450Z,2.22
2017-08-13T16:17:52.621Z,1.95
2017-08-13T16:20:20.801Z,1.90
2017-08-13T16:22:48.946Z,2.35
2017-08-13T16:25:17.100Z,2.20
2017-08-13T16:27:45.290Z,2.40
2017-08-13T16:30:13.438Z,2.40
2017-08-13T16:32:42.358Z,2.17
2017-08-13T16:35:10.551Z,2.55
2017-08-13T16:37:38.729Z,2.10
2017-08-13T16:40:06.914Z,2.47
2017-08-13T16:42:35.110Z,1.40
2017-08-13T16:45:03.281Z,1.90
2017-08-13T16:47:31.424Z,2.03
2017-08-13T16:49:59.617Z,1.75
2017-08-13T16:52:28.588Z,2.50
2017-08-13T16:54:56.735Z,3.50
2017-08-13T16:57:24.929Z,2.72
2017-08-13T16:59:53.097Z,4.10
2017-08-13T17:02:21.242Z,3.60
2017-08-13T17:04:50.510Z,3.25
2017-08-13T17:07:18.677Z,2.60
2017-08-13T17:09:46.824Z,2.30
2017-08-13T17:12:15.000Z,2.85
2017-08-13T17:14:43.168Z,4.20
2017-08-13T17:17:11.313Z,2.58
2017-08-13T17:19:40.270Z,2.78
2017-08-13T17:22:08.435Z,3.25
2017-08-13T17:24:36.583Z,2.20
2017-08-13T17:27:04.764Z,2.37
2017-08-13T17:29:32.936Z,2.60
2017-08-13T17:32:01.132Z,5.78
2017-08-13T17:34:29.336Z,7.57
2017-08-13T17:36:57.500Z,5.90
2017-08-13T17:39:25.675Z,5.75
2017-08-13T17:41:53.851Z,5.20
2017-08-13T17:44:22.001Z,4.20
2017-08-13T17:46:50.145Z,4.22
2017-08-13T17:49:18.317Z,3.17
2017-08-13T17:51:46.487Z,3.87
2017-08-13T17:54:15.411Z,3.60
2017-08-13T17:56:43.601Z,4.90
2017-08-13T17:59:11.760Z,3.35
2017-08-13T18:01:39.902Z,3.15
2017-08-13T18:04:08.090Z,2.60
2017-08-13T18:06:36.242Z,2.95
2017-08-13T18:09:05.155Z,2.45
2017-08-13T18:11:33.330Z,3.25
2017-08-13T18:14:01.483Z,3.55
2017-08-13T18:16:30.399Z,3.50
2017-08-13T18:18:58.595Z,4.53
2017-08-13T18:21:26.737Z,3.12
2017-08-13T18:23:54.909Z,3.10
2017-08-13T18:26:23.850Z,3.08
2017-08-13T18:28:51.995Z,3.67
2017-08-13T18:31:20.160Z,4.60
2017-08-13T18:33:48.774Z,4.10
2017-08-13T18:36:16.937Z,3.83
2017-08-13T18:38:45.095Z,4.65
2017-08-13T18:41:13.304Z,5.82
2017-08-13T18:43:41.476Z,5.93
2017-08-13T18:46:09.749Z,4.90
2017-08-13T18:48:38.078Z,3.65
2017-08-13T18:51:06.454Z,11.75
2017-08-13T18:53:34.786Z,6.80
2017-08-13T18:56:03.139Z,4.25
2017-08-13T18:58:31.457Z,4.10
2017-08-13T19:00:59.783Z,5.50
2017-08-13T19:03:28.259Z,5.50
2017-08-13T19:05:56.717Z,3.85
2017-08-13T19:08:25.123Z,4.45
2017-08-13T19:10:53.527Z,6.70
2017-08-13T19:13:21.998Z,7.43
2017-08-13T19:15:50.457Z,6.72
2017-08-13T19:18:18.955Z,5.10
2017-08-13T19:20:47.422Z,4.90
2017-08-13T19:23:15.918Z,4.85
2017-08-13T19:25:44.418Z,5.72
2017-08-13T19:28:12.884Z,5.10
2017-08-13T19:30:41.364Z,7.60
2017-08-13T19:33:10.899Z,4.55
2017-08-13T19:35:39.388Z,7.65
2017-08-13T19:38:08.599Z,8.63
2017-08-13T19:40:37.805Z,8.20
2017-08-13T19:43:07.019Z,10.40
2017-08-13T19:45:35.487Z,7.55
2017-08-13T19:48:03.969Z,9.10
2017-08-13T19:50:33.107Z,9.45
2017-08-13T19:53:01.542Z,8.75
2017-08-13T19:55:30.731Z,7.57
2017-08-13T19:57:59.933Z,8.98
2017-08-13T20:00:29.080Z,6.10
2017-08-13T20:02:57.470Z,6.45
2017-08-13T20:05:25.771Z,6.25
2017-08-13T20:07:54.047Z,5.82
2017-08-13T20:10:22.299Z,6.32
2017-08-13T20:12:50.498Z,7.87
2017-08-13T20:15:18.711Z,8.82
2017-08-13T20:17:47.678Z,10.38
2017-08-13T20:20:15.823Z,8.43
2017-08-13T20:22:43.970Z,6.55
2017-08-13T20:25:12.923Z,7.53
2017-08-13T20:27:41.079Z,11.73
2017-08-13T20:30:09.256Z,7.40
2017-08-13T20:32:37.458Z,8.73
2017-08-13T20:35:05.613Z,9.68
2017-08-13T20:37:33.784Z,11.73
2017-08-13T20:40:01.985Z,13.25
2017-08-13T20:42:30.160Z,9.82
2017-08-13T20:44:58.328Z,7.12
2017-08-13T20:47:26.526Z,11.80
2017-08-13T20:49:55.442Z,8.45
2017-08-13T20:52:23.608Z,9.88
2017-08-13T20:54:52.543Z,7.47
2017-08-13T20:57:20.720Z,9.02
2017-08-13T20:59:48.901Z,7.12
2017-08-13T21:02:17.104Z,8.18
2017-08-13T21:04:45.277Z,6.87
2017-08-13T21:07:13.428Z,8.27
2017-08-13T21:09:41.594Z,7.50
2017-08-13T21:12:09.760Z,7.82
2017-08-13T21:14:37.930Z,7.75
2017-08-13T21:17:06.103Z,7.20
2017-08-13T21:19:34.249Z,6.85
2017-08-13T21:22:02.413Z,5.70
2017-08-13T21:24:30.877Z,5.97
2017-08-13T21:26:59.050Z,6.00
2017-08-13T21:29:27.198Z,9.35
2017-08-13T21:31:55.369Z,9.50
2017-08-13T21:34:23.545Z,10.05
2017-08-13T21:36:51.718Z,7.70
2017-08-13T21:39:19.934Z,9.95
2017-08-13T21:41:48.874Z,10.63
2017-08-13T21:44:17.037Z,8.10
2017-08-13T21:46:45.554Z,8.90
2017-08-13T21:49:13.724Z,6.30
2017-08-13T21:51:41.891Z,7.00
2017-08-13T21:54:10.063Z,6.25
2017-08-13T21:56:38.210Z,7.25
2017-08-13T21:59:06.358Z,7.40
2017-08-13T22:01:35.323Z,7.12
2017-08-13T22:04:03.488Z,7.72
2017-08-13T22:06:31.633Z,7.18
2017-08-13T22:08:59.822Z,6.45
2017-08-13T22:11:27.993Z,5.85
2017-08-13T22:13:56.142Z,6.15
2017-08-13T22:16:24.338Z,6.10
2017-08-13T22:18:52.485Z,6.57
2017-08-13T22:21:21.402Z,4.87
2017-08-13T22:23:49.588Z,5.40
2017-08-13T22:26:17.734Z,5.70
2017-08-13T22:28:45.887Z,6.55
2017-08-13T22:31:14.839Z,5.75
2017-08-13T22:33:42.985Z,5.85
2017-08-13T22:36:11.132Z,5.47
2017-08-13T22:38:40.098Z,6.32
2017-08-13T22:41:08.250Z,5.95
2017-08-13T22:43:36.390Z,5.90
2017-08-13T22:46:04.566Z,6.05
2017-08-13T22:48:32.726Z,4.95
2017-08-13T22:51:01.633Z,5.20
2017-08-13T22:53:29.807Z,6.43
2017-08-13T22:55:57.971Z,5.10
2017-08-13T22:58:26.122Z,5.80
2017-08-13T23:00:54.317Z,5.35
2017-08-13T23:03:23.229Z,5.60
2017-08-13T23:05:51.378Z,5.15
2017-08-13T23:08:20.323Z,5.45
2017-08-13T23:10:48.496Z,5.70
2017-08-13T23:13:16.669Z,5.70
2017-08-13T23:15:44.869Z,4.93
2017-08-13T23:18:13.026Z,4.75
2017-08-13T23:20:41.178Z,5.93
2017-08-13T23:23:10.298Z,5.07
2017-08-13T23:25:38.470Z,4.80
2017-08-13T23:28:06.638Z,4.70
2017-08-13T23:30:34.819Z,5.40
2017-08-13T23:33:02.984Z,4.95
2017-08-13T23:35:31.138Z,5.30
2017-08-13T23:37:59.314Z,5.05
2017-08-13T23:40:27.482Z,4.77
2017-08-13T23:42:55.621Z,4.87
2017-08-13T23:45:23.794Z,5.60
2017-08-13T23:47:51.961Z,4.80
2017-08-13T23:50:20.108Z,5.55
2017-08-13T23:52:48.300Z,4.43
2017-08-13T23:55:16.471Z,4.22
2017-08-13T23:57:44.641Z,4.90
